Time,TemperatureF,DewpointF,PressureIn,WindDirection,WindDirectionDegrees,WindSpeedMPH,WindSpeedGustMPH,Humidity,HourlyPrecipIn,Conditions,Clouds,dailyrainin,SolarRadiationWatts/m^2,SoftwareType,DateUTC
2013-08-21 00:12:00,59.0,39.0,-100.00,NW,312,4.0,6.0,48,0.00,,,0.00,0.000000,,2013-08-21 06:12:00,
2013-08-21 00:22:00,59.0,39.0,-100.00,NW,312,4.0,6.0,48,0.00,,,0.00,0.000000,,2013-08-21 06:22:00,
2013-08-21 00:32:00,59.0,39.0,-100.00,NW,312,4.0,6.0,48,0.00,,,0.00,0.000000,,2013-08-21 06:32:00,
2013-08-21 00:52:00,59.0,39.0,-100.00,West,265,5.0,10.0,47,0.00,,,0.00,0.000000,,2013-08-21 06:52:00,
2013-08-21 01:02:00,59.0,39.0,-100.00,West,265,5.0,10.0,47,0.00,,,0.00,0.000000,,2013-08-21 07:02:00,
2013-08-21 01:11:00,59.0,39.0,-100.00,West,265,5.0,10.0,47,0.00,,,0.00,0.000000,,2013-08-21 07:11:00,
2013-08-21 01:22:00,59.0,39.0,-100.00,West,265,5.0,10.0,47,0.00,,,0.00,0.000000,,2013-08-21 07:22:00,
2013-08-21 01:32:00,59.0,39.0,-100.00,West,265,5.0,10.0,47,0.00,,,0.00,0.000000,,2013-08-21 07:32:00,
2013-08-21 02:12:00,58.0,39.0,-100.00,NW,319,5.0,10.0,50,0.00,,,0.00,0.000000,,2013-08-21 08:12:00,
2013-08-21 02:22:00,58.0,39.0,-100.00,NW,319,5.0,10.0,50,0.00,,,0.00,0.000000,,2013-08-21 08:22:00,
2013-08-21 02:32:00,58.0,39.0,-100.00,NW,319,5.0,10.0,50,0.00,,,0.00,0.000000,,2013-08-21 08:32:00,
2013-08-21 02:53:00,58.0,39.0,-100.00,NW,315,4.0,8.0,49,0.00,,,0.00,0.000000,,2013-08-21 08:53:00,
2013-08-21 03:01:00,58.0,39.0,-100.00,NW,315,4.0,8.0,49,0.00,,,0.00,0.000000,,2013-08-21 09:01:00,
2013-08-21 03:11:00,58.0,39.0,-100.00,NW,315,4.0,8.0,49,0.00,,,0.00,0.000000,,2013-08-21 09:11:00,
2013-08-21 03:22:00,58.0,39.0,-100.00,NW,315,4.0,8.0,49,0.00,,,0.00,0.000000,,2013-08-21 09:22:00,
2013-08-21 03:33:00,58.0,39.0,-100.00,NW,315,4.0,8.0,49,0.00,,,0.00,0.000000,,2013-08-21 09:33:00,
2013-08-21 03:54:00,58.0,39.0,-100.00,WNW,288,4.0,8.0,50,0.00,,,0.00,0.000000,,2013-08-21 09:54:00,
2013-08-21 04:03:00,58.0,39.0,-100.00,WNW,288,4.0,8.0,50,0.00,,,0.00,0.000000,,2013-08-21 10:03:00,
2013-08-21 04:13:00,58.0,39.0,-100.00,WNW,288,4.0,8.0,50,0.00,,,0.00,0.000000,,2013-08-21 10:13:00,
2013-08-21 04:23:00,58.0,39.0,-100.00,WNW,288,4.0,8.0,50,0.00,,,0.00,0.000000,,2013-08-21 10:23:00,
2013-08-21 04:33:00,58.0,39.0,-100.00,WNW,288,4.0,8.0,50,0.00,,,0.00,0.000000,,2013-08-21 10:33:00,
2013-08-21 04:53:00,58.0,39.0,-100.00,West,276,2.0,10.0,50,0.00,,,0.00,0.000000,,2013-08-21 10:53:00,
2013-08-21 05:03:00,58.0,39.0,-100.00,West,276,2.0,10.0,50,0.00,,,0.00,0.000000,,2013-08-21 11:03:00,
2013-08-21 05:12:00,58.0,39.0,-100.00,West,276,2.0,10.0,50,0.00,,,0.00,0.000000,,2013-08-21 11:12:00,
2013-08-21 05:22:00,58.0,39.0,-100.00,West,276,2.0,10.0,50,0.00,,,0.00,0.000000,,2013-08-21 11:22:00,
2013-08-21 05:33:00,58.0,39.0,-100.00,West,276,2.0,10.0,50,0.00,,,0.00,0.000000,,2013-08-21 11:33:00,
2013-08-21 05:53:00,57.0,40.0,-100.00,West,266,2.0,6.0,53,0.00,,,0.00,0.000000,,2013-08-21 11:53:00,
2013-08-21 06:01:00,57.0,40.0,-100.00,West,266,2.0,6.0,53,0.00,,,0.00,0.000000,,2013-08-21 12:01:00,
2013-08-21 06:12:00,57.0,40.0,-100.00,West,266,2.0,6.0,53,0.00,,,0.00,0.000000,,2013-08-21 12:12:00,
2013-08-21 06:22:00,57.0,40.0,-100.00,West,266,2.0,6.0,53,0.00,,,0.00,0.000000,,2013-08-21 12:22:00,
2013-08-21 06:32:00,57.0,40.0,-100.00,West,266,2.0,6.0,53,0.00,,,0.00,0.000000,,2013-08-21 12:32:00,
2013-08-21 06:52:00,55.0,40.0,-100.00,WNW,290,3.0,8.0,56,0.00,,,0.00,2.000000,,2013-08-21 12:52:00,
2013-08-21 07:02:00,55.0,40.0,-100.00,WNW,290,3.0,8.0,56,0.00,,,0.00,2.000000,,2013-08-21 13:02:00,
2013-08-21 07:12:00,55.0,40.0,-100.00,WNW,290,3.0,8.0,56,0.00,,,0.00,2.000000,,2013-08-21 13:12:00,
2013-08-21 07:21:00,55.0,40.0,-100.00,WNW,290,3.0,8.0,56,0.00,,,0.00,2.000000,,2013-08-21 13:21:00,
2013-08-21 07:32:00,55.0,40.0,-100.00,WNW,290,3.0,8.0,56,0.00,,,0.00,2.000000,,2013-08-21 13:32:00,
2013-08-21 07:52:00,56.0,40.0,-100.00,West,273,3.0,12.0,55,0.00,,,0.00,25.000000,,2013-08-21 13:52:00,
2013-08-21 08:02:00,56.0,40.0,-100.00,West,273,3.0,12.0,55,0.00,,,0.00,25.000000,,2013-08-21 14:02:00,
2013-08-21 08:11:00,56.0,40.0,-100.00,West,273,3.0,12.0,55,0.00,,,0.00,25.000000,,2013-08-21 14:11:00,
2013-08-21 08:21:00,56.0,40.0,-100.00,West,273,3.0,12.0,55,0.00,,,0.00,25.000000,,2013-08-21 14:21:00,
2013-08-21 08:32:00,56.0,40.0,-100.00,West,273,3.0,12.0,55,0.00,,,0.00,25.000000,,2013-08-21 14:32:00,
2013-08-21 08:34:00,62.0,41.0,-100.00,WNW,296,2.0,5.0,46,0.00,,,0.00,248.000000,,2013-08-21 14:34:00,
2013-08-21 08:52:00,62.0,41.0,-100.00,WNW,296,2.0,5.0,46,0.00,,,0.00,248.000000,,2013-08-21 14:52:00,
2013-08-21 09:01:00,62.0,41.0,-100.00,WNW,296,2.0,5.0,46,0.00,,,0.00,248.000000,,2013-08-21 15:01:00,
2013-08-21 09:11:00,62.0,41.0,-100.00,WNW,296,2.0,5.0,46,0.00,,,0.00,248.000000,,2013-08-21 15:11:00,
2013-08-21 09:22:00,62.0,41.0,-100.00,WNW,296,2.0,5.0,46,0.00,,,0.00,248.000000,,2013-08-21 15:22:00,
2013-08-21 09:34:00,64.0,42.0,-100.00,WNW,293,4.0,7.0,44,0.00,,,0.00,463.000000,,2013-08-21 15:34:00,
2013-08-21 09:55:00,64.0,42.0,-100.00,WNW,293,4.0,7.0,44,0.00,,,0.00,463.000000,,2013-08-21 15:55:00,
2013-08-21 10:04:00,64.0,42.0,-100.00,WNW,293,4.0,7.0,44,0.00,,,0.00,463.000000,,2013-08-21 16:04:00,
2013-08-21 10:13:00,64.0,42.0,-100.00,WNW,293,4.0,7.0,44,0.00,,,0.00,463.000000,,2013-08-21 16:13:00,
2013-08-21 10:24:00,64.0,42.0,-100.00,WNW,293,4.0,7.0,44,0.00,,,0.00,463.000000,,2013-08-21 16:24:00,
2013-08-21 10:34:00,70.0,40.0,-100.00,NW,320,4.0,10.0,34,0.00,,,-99.99,667.000000,,2013-08-21 16:34:00,
2013-08-21 10:53:00,70.0,40.0,-100.00,NW,320,4.0,10.0,34,0.00,,,-99.99,667.000000,,2013-08-21 16:53:00,
2013-08-21 11:04:00,70.0,40.0,-100.00,NW,320,4.0,10.0,34,0.00,,,-99.99,667.000000,,2013-08-21 17:04:00,
2013-08-21 11:13:00,70.0,40.0,-100.00,NW,320,4.0,10.0,34,0.00,,,-99.99,667.000000,,2013-08-21 17:13:00,
2013-08-21 11:23:00,70.0,40.0,-100.00,NW,320,4.0,10.0,34,0.00,,,-99.99,667.000000,,2013-08-21 17:23:00,
2013-08-21 11:53:00,74.0,39.0,-100.00,NNW,338,5.0,12.0,28,0.00,,,0.00,829.000000,,2013-08-21 17:53:00,
2013-08-21 12:02:00,74.0,39.0,-100.00,NNW,338,5.0,12.0,28,0.00,,,0.00,829.000000,,2013-08-21 18:02:00,
2013-08-21 12:12:00,74.0,39.0,-100.00,NNW,338,5.0,12.0,28,0.00,,,0.00,829.000000,,2013-08-21 18:12:00,
2013-08-21 12:22:00,74.0,39.0,-100.00,NNW,338,5.0,12.0,28,0.00,,,0.00,829.000000,,2013-08-21 18:22:00,
2013-08-21 12:32:00,74.0,39.0,-100.00,NNW,338,5.0,12.0,28,0.00,,,0.00,829.000000,,2013-08-21 18:32:00,
2013-08-21 13:12:00,71.0,38.0,-100.00,NW,314,11.0,24.0,30,0.00,,,0.00,812.000000,,2013-08-21 19:12:00,
2013-08-21 13:22:00,71.0,38.0,-100.00,NW,314,11.0,24.0,30,0.00,,,0.00,812.000000,,2013-08-21 19:22:00,
2013-08-21 13:32:00,71.0,38.0,-100.00,NW,314,11.0,24.0,30,0.00,,,0.00,812.000000,,2013-08-21 19:32:00,
2013-08-21 13:52:00,68.0,39.0,-100.00,SSE,162,8.0,24.0,35,0.00,,,0.00,374.000000,,2013-08-21 19:52:00,
2013-08-21 14:03:00,68.0,39.0,-100.00,SSE,162,8.0,24.0,35,0.00,,,0.00,374.000000,,2013-08-21 20:03:00,
2013-08-21 14:11:00,68.0,39.0,-100.00,SSE,162,8.0,24.0,35,0.00,,,0.00,374.000000,,2013-08-21 20:11:00,
2013-08-21 14:22:00,68.0,39.0,-100.00,SSE,162,8.0,24.0,35,0.00,,,0.00,374.000000,,2013-08-21 20:22:00,
2013-08-21 14:32:00,68.0,39.0,-100.00,SSE,162,8.0,24.0,35,0.00,,,0.00,374.000000,,2013-08-21 20:32:00,
2013-08-21 14:34:00,68.0,39.0,-100.00,South,190,3.0,14.0,35,0.01,,,0.01,133.000000,,2013-08-21 20:34:00,
2013-08-21 15:12:00,68.0,39.0,-100.00,South,190,3.0,14.0,35,0.01,,,0.01,133.000000,,2013-08-21 21:12:00,
2013-08-21 15:21:00,68.0,39.0,-100.00,South,190,3.0,14.0,35,0.01,,,0.01,133.000000,,2013-08-21 21:21:00,
2013-08-21 15:34:00,68.0,39.0,-100.00,SSE,152,3.0,8.0,34,0.00,,,0.01,165.000000,,2013-08-21 21:34:00,
2013-08-21 15:55:00,68.0,39.0,-100.00,SSE,152,3.0,8.0,34,0.00,,,0.01,165.000000,,2013-08-21 21:55:00,
2013-08-21 16:04:00,68.0,39.0,-100.00,SSE,152,3.0,8.0,34,0.00,,,0.01,165.000000,,2013-08-21 22:04:00,
2013-08-21 16:14:00,68.0,39.0,-100.00,SSE,152,3.0,8.0,34,0.00,,,0.01,165.000000,,2013-08-21 22:14:00,
2013-08-21 16:24:00,68.0,39.0,-100.00,SSE,152,3.0,8.0,34,0.00,,,0.01,165.000000,,2013-08-21 22:24:00,
2013-08-21 16:34:00,70.0,40.0,-100.00,ENE,73,5.0,15.0,33,0.00,,,0.01,425.000000,,2013-08-21 22:34:00,
2013-08-21 16:53:00,70.0,40.0,-100.00,ENE,73,5.0,15.0,33,0.00,,,0.01,425.000000,,2013-08-21 22:53:00,
2013-08-21 17:04:00,70.0,40.0,-100.00,ENE,73,5.0,15.0,33,0.00,,,0.01,425.000000,,2013-08-21 23:04:00,
2013-08-21 17:13:00,70.0,40.0,-100.00,ENE,73,5.0,15.0,33,0.00,,,0.01,425.000000,,2013-08-21 23:13:00,
2013-08-21 17:22:00,70.0,40.0,-100.00,ENE,73,5.0,15.0,33,0.00,,,0.01,425.000000,,2013-08-21 23:22:00,
2013-08-21 17:53:00,67.0,41.0,-100.00,SE,146,4.0,12.0,38,0.00,,,0.01,164.000000,,2013-08-21 23:53:00,
2013-08-21 18:02:00,67.0,41.0,-100.00,SE,146,4.0,12.0,38,0.00,,,0.01,164.000000,,2013-08-22 00:02:00,
2013-08-21 18:12:00,67.0,41.0,-100.00,SE,146,4.0,12.0,38,0.00,,,0.01,164.000000,,2013-08-22 00:12:00,
2013-08-21 18:22:00,67.0,41.0,-100.00,SE,146,4.0,12.0,38,0.00,,,0.01,164.000000,,2013-08-22 00:22:00,
2013-08-21 18:32:00,67.0,41.0,-100.00,SE,146,4.0,12.0,38,0.00,,,0.01,164.000000,,2013-08-22 00:32:00,
2013-08-21 18:52:00,67.0,40.0,-100.00,SE,140,6.0,10.0,37,0.00,,,0.01,139.000000,,2013-08-22 00:52:00,
2013-08-21 19:02:00,67.0,40.0,-100.00,SE,140,6.0,10.0,37,0.00,,,0.01,139.000000,,2013-08-22 01:02:00,
2013-08-21 19:11:00,67.0,40.0,-100.00,SE,140,6.0,10.0,37,0.00,,,0.01,139.000000,,2013-08-22 01:11:00,
2013-08-21 19:22:00,67.0,40.0,-100.00,SE,140,6.0,10.0,37,0.00,,,0.01,139.000000,,2013-08-22 01:22:00,
2013-08-21 19:32:00,67.0,40.0,-100.00,SE,140,6.0,10.0,37,0.00,,,0.01,139.000000,,2013-08-22 01:32:00,
2013-08-21 19:52:00,63.0,38.0,-100.00,South,191,2.0,9.0,40,0.00,,,0.01,55.000000,,2013-08-22 01:52:00,
2013-08-21 20:03:00,63.0,38.0,-100.00,South,191,2.0,9.0,40,0.00,,,0.01,55.000000,,2013-08-22 02:03:00,
2013-08-21 20:12:00,63.0,38.0,-100.00,South,191,2.0,9.0,40,0.00,,,0.01,55.000000,,2013-08-22 02:12:00,
2013-08-21 20:22:00,63.0,38.0,-100.00,South,191,2.0,9.0,40,0.00,,,0.01,55.000000,,2013-08-22 02:22:00,
2013-08-21 20:32:00,63.0,38.0,-100.00,South,191,2.0,9.0,40,0.00,,,0.01,55.000000,,2013-08-22 02:32:00,
2013-08-21 20:34:00,60.0,40.0,-100.00,WSW,257,6.0,13.0,48,0.00,,,0.01,2.000000,,2013-08-22 02:34:00,
2013-08-21 21:12:00,60.0,40.0,-100.00,WSW,257,6.0,13.0,48,0.00,,,0.01,2.000000,,2013-08-22 03:12:00,
2013-08-21 21:22:00,60.0,40.0,-100.00,WSW,257,6.0,13.0,48,0.00,,,0.01,2.000000,,2013-08-22 03:22:00,
2013-08-21 21:34:00,60.0,39.0,-100.00,SW,225,5.0,9.0,45,0.00,,,0.01,0.000000,,2013-08-22 03:34:00,
2013-08-21 21:54:00,60.0,39.0,-100.00,SW,225,5.0,9.0,45,0.00,,,0.01,0.000000,,2013-08-22 03:54:00,
2013-08-21 22:04:00,60.0,39.0,-100.00,SW,225,5.0,9.0,45,0.00,,,0.01,0.000000,,2013-08-22 04:04:00,
2013-08-21 22:14:00,60.0,39.0,-100.00,SW,225,5.0,9.0,45,0.00,,,0.01,0.000000,,2013-08-22 04:14:00,
2013-08-21 22:23:00,60.0,39.0,-100.00,SW,225,5.0,9.0,45,0.00,,,0.01,0.000000,,2013-08-22 04:23:00,
2013-08-21 22:34:00,59.0,41.0,-100.00,West,259,3.0,8.0,51,0.00,,,0.01,0.000000,,2013-08-22 04:34:00,
2013-08-21 22:54:00,59.0,41.0,-100.00,West,259,3.0,8.0,51,0.00,,,0.01,0.000000,,2013-08-22 04:54:00,
2013-08-21 23:03:00,59.0,41.0,-100.00,West,259,3.0,8.0,51,0.00,,,0.01,0.000000,,2013-08-22 05:03:00,
2013-08-21 23:13:00,59.0,41.0,-100.00,West,259,3.0,8.0,51,0.00,,,0.01,0.000000,,2013-08-22 05:13:00,
2013-08-21 23:22:00,59.0,41.0,-100.00,West,259,3.0,8.0,51,0.00,,,0.01,0.000000,,2013-08-22 05:22:00,
2013-08-21 23:53:00,58.0,39.0,-100.00,West,260,2.0,6.0,50,0.00,,,0.01,0.000000,,2013-08-22 05:53:00,